createdAt,value
2018-04-09T00:01:57.046Z,99.90
2018-04-09T00:04:23.457Z,99.90
2018-04-09T00:06:49.874Z,99.90
2018-04-09T00:09:16.294Z,99.90
2018-04-09T00:11:42.657Z,99.90
2018-04-09T00:14:09.081Z,99.90
2018-04-09T00:16:35.444Z,99.90
2018-04-09T00:19:01.846Z,99.90
2018-04-09T00:21:28.233Z,99.90
2018-04-09T00:23:55.346Z,99.90
2018-04-09T00:26:21.742Z,99.90
2018-04-09T00:28:48.137Z,99.90
2018-04-09T00:31:14.546Z,99.90
2018-04-09T00:33:40.958Z,99.90
2018-04-09T00:36:07.337Z,99.90
2018-04-09T00:38:33.733Z,99.90
2018-04-09T00:41:00.165Z,99.90
2018-04-09T00:43:26.537Z,99.90
2018-04-09T00:45:52.929Z,99.90
2018-04-09T00:48:19.324Z,99.90
2018-04-09T00:50:46.434Z,99.90
2018-04-09T00:53:12.837Z,99.90
2018-04-09T00:55:39.223Z,99.90
2018-04-09T00:58:06.382Z,99.90
2018-04-09T01:00:32.752Z,99.90
2018-04-09T01:02:59.917Z,99.90
2018-04-09T01:05:26.290Z,99.90
2018-04-09T01:07:52.730Z,99.90
2018-04-09T01:10:19.123Z,99.90
2018-04-09T01:12:45.536Z,99.90
2018-04-09T01:15:11.994Z,99.90
2018-04-09T01:17:38.384Z,99.90
2018-04-09T01:20:05.533Z,99.90
2018-04-09T01:22:32.753Z,99.90
2018-04-09T01:24:59.155Z,99.90
2018-04-09T01:27:25.558Z,99.90
2018-04-09T01:29:52.669Z,99.90
2018-04-09T01:32:19.100Z,99.90
2018-04-09T01:34:45.510Z,99.90
2018-04-09T01:37:11.877Z,99.90
2018-04-09T01:39:38.272Z,99.90
2018-04-09T01:42:04.648Z,99.90
2018-04-09T01:44:31.042Z,99.90
2018-04-09T01:46:57.425Z,99.90
2018-04-09T01:49:23.804Z,99.90
2018-04-09T01:51:50.176Z,99.90
2018-04-09T01:54:16.581Z,99.90
2018-04-09T01:56:42.985Z,99.90
2018-04-09T01:59:10.089Z,99.90
2018-04-09T02:01:36.474Z,99.90
2018-04-09T02:04:03.573Z,99.90
2018-04-09T02:06:29.949Z,99.90
2018-04-09T02:08:57.087Z,99.90
2018-04-09T02:11:24.233Z,99.90
2018-04-09T02:13:50.633Z,99.90
2018-04-09T02:16:16.988Z,99.90
2018-04-09T02:18:43.409Z,99.90
2018-04-09T02:21:09.781Z,99.90
2018-04-09T02:23:36.936Z,99.90
2018-04-09T02:26:04.051Z,99.90
2018-04-09T02:28:30.447Z,99.90
2018-04-09T02:30:56.842Z,99.90
2018-04-09T02:33:23.338Z,99.90
2018-04-09T02:35:49.863Z,99.90
2018-04-09T02:38:16.302Z,99.90
2018-04-09T02:40:42.741Z,99.90
2018-04-09T02:43:09.104Z,99.90
2018-04-09T02:45:35.510Z,99.90
2018-04-09T02:48:01.899Z,99.90
2018-04-09T02:50:29.022Z,99.90
2018-04-09T02:52:55.384Z,99.90
2018-04-09T02:55:22.549Z,99.90
2018-04-09T02:57:49.320Z,99.90
2018-04-09T03:00:15.685Z,99.90
2018-04-09T03:02:42.639Z,99.90
2018-04-09T03:05:09.070Z,99.90
2018-04-09T03:07:35.573Z,99.90
2018-04-09T03:10:01.964Z,99.90
2018-04-09T03:12:29.105Z,99.90
2018-04-09T03:14:55.506Z,99.90
2018-04-09T03:17:22.440Z,99.90
2018-04-09T03:19:48.846Z,99.90
2018-04-09T03:22:15.218Z,99.90
2018-04-09T03:24:41.629Z,99.90
2018-04-09T03:27:07.998Z,99.90
2018-04-09T03:29:35.390Z,99.90
2018-04-09T03:32:02.789Z,99.90
2018-04-09T03:34:29.940Z,99.90
2018-04-09T03:36:56.337Z,99.90
2018-04-09T03:39:23.449Z,99.90
2018-04-09T03:41:50.371Z,99.90
2018-04-09T03:44:16.766Z,99.90
2018-04-09T03:46:43.869Z,99.90
2018-04-09T03:49:10.305Z,99.90
2018-04-09T03:51:36.746Z,99.90
2018-04-09T03:54:03.180Z,99.90
2018-04-09T03:56:29.598Z,99.90
2018-04-09T03:59:12.889Z,99.90
2018-04-09T04:01:54.865Z,99.90
2018-04-09T04:04:41.761Z,99.90
2018-04-09T04:07:25.813Z,99.90
2018-04-09T04:10:09.797Z,99.90
2018-04-09T04:12:52.853Z,99.90
2018-04-09T04:15:46.145Z,99.90
2018-04-09T04:18:34.436Z,99.90
2018-04-09T04:21:28.431Z,99.90
2018-04-09T04:24:11.251Z,99.90
2018-04-09T04:26:57.791Z,99.90
2018-04-09T04:29:42.586Z,99.90
2018-04-09T04:32:27.496Z,99.90
2018-04-09T04:35:11.686Z,99.90
2018-04-09T04:37:54.546Z,99.90
2018-04-09T04:40:38.532Z,99.90
2018-04-09T17:41:56.767Z,56.40
2018-04-09T17:44:26.121Z,61.60
2018-04-09T17:46:52.615Z,61.50
2018-04-09T17:49:19.602Z,72.00
2018-04-09T17:51:46.858Z,71.90
2018-04-09T17:54:13.140Z,79.80
2018-04-09T17:56:40.114Z,83.50
2018-04-09T17:59:07.315Z,83.90
2018-04-09T18:01:33.744Z,83.70
2018-04-09T18:04:00.156Z,83.60
2018-04-09T18:06:26.643Z,84.90
2018-04-09T18:08:53.849Z,88.90
2018-04-09T18:11:20.325Z,88.90
2018-04-09T18:13:46.766Z,91.30
2018-04-09T18:16:13.237Z,92.00
2018-04-09T18:18:39.639Z,91.80
2018-04-09T18:21:06.774Z,92.00
2018-04-09T18:23:33.155Z,91.90
2018-04-09T18:26:02.243Z,96.20
2018-04-09T18:28:28.674Z,99.00
2018-04-09T18:30:55.128Z,99.90
2018-04-09T18:33:21.529Z,99.20
2018-04-09T18:35:48.670Z,99.90
2018-04-09T18:38:15.856Z,99.90
2018-04-09T18:40:42.229Z,99.90
2018-04-09T18:43:08.618Z,99.90
2018-04-09T18:45:35.062Z,99.90
2018-04-09T18:48:01.541Z,99.90
2018-04-09T18:50:28.000Z,99.90
2018-04-09T18:52:55.137Z,99.90
2018-04-09T18:55:21.560Z,99.90
2018-04-09T18:57:47.948Z,99.90
2018-04-09T19:00:14.371Z,99.90
2018-04-09T19:02:41.531Z,99.90
2018-04-09T19:05:07.999Z,99.90
2018-04-09T19:07:34.389Z,99.90
2018-04-09T19:10:01.568Z,99.90
2018-04-09T19:12:28.114Z,99.90
2018-04-09T19:14:54.703Z,99.90
2018-04-09T19:17:22.333Z,99.90
2018-04-09T19:19:49.659Z,99.90
2018-04-09T19:22:16.052Z,99.90
2018-04-09T19:24:43.171Z,99.90
2018-04-09T19:27:09.560Z,99.90
2018-04-09T19:29:36.130Z,99.90
2018-04-09T19:32:03.487Z,99.90
2018-04-09T19:34:29.932Z,99.90
2018-04-09T19:37:02.383Z,99.90
2018-04-09T19:39:33.871Z,99.90
2018-04-09T19:42:14.636Z,99.90
2018-04-09T19:44:41.051Z,99.90
2018-04-09T19:47:07.444Z,99.90
2018-04-09T19:49:34.592Z,99.90
2018-04-09T19:52:01.764Z,99.90
2018-04-09T19:54:28.151Z,99.90
2018-04-09T19:56:54.546Z,99.90
2018-04-09T19:59:20.946Z,99.90
2018-04-09T20:01:48.113Z,99.90
2018-04-09T20:04:14.531Z,99.90
2018-04-09T20:06:40.908Z,99.90
2018-04-09T20:09:07.322Z,99.90
2018-04-09T20:11:33.735Z,99.90
2018-04-09T20:14:00.891Z,99.90
2018-04-09T20:16:28.032Z,99.90
2018-04-09T20:18:54.440Z,99.90
2018-04-09T20:21:20.835Z,99.90
2018-04-09T20:23:47.233Z,99.90
2018-04-09T20:26:13.648Z,99.90
2018-04-09T20:28:40.064Z,99.90
2018-04-09T20:31:06.479Z,99.90
2018-04-09T20:33:32.908Z,99.90
2018-04-09T20:35:59.303Z,99.90
2018-04-09T20:38:26.451Z,99.90
2018-04-09T20:40:52.837Z,99.90
2018-04-09T20:43:19.258Z,99.90
2018-04-09T20:45:45.683Z,99.90
2018-04-09T20:48:12.103Z,99.90
2018-04-09T20:50:39.242Z,99.90
2018-04-09T20:53:05.640Z,99.90
2018-04-09T20:55:32.039Z,99.90
2018-04-09T20:57:58.451Z,99.90
2018-04-09T21:00:32.536Z,99.90
2018-04-09T21:02:58.761Z,99.90
2018-04-09T21:05:24.986Z,99.90
2018-04-09T21:07:51.226Z,99.90
2018-04-09T21:10:17.443Z,99.90
2018-04-09T21:12:43.661Z,99.90
2018-04-09T21:15:09.867Z,99.90
2018-04-09T21:17:36.098Z,99.90
2018-04-09T21:20:02.389Z,99.90
2018-04-09T21:22:28.617Z,99.90
2018-04-09T21:24:54.812Z,99.90
2018-04-09T21:27:21.052Z,99.90
2018-04-09T21:29:47.280Z,99.90
2018-04-09T21:32:13.480Z,99.90
2018-04-09T21:34:39.775Z,99.90
2018-04-09T21:37:05.969Z,99.90
2018-04-09T21:39:32.210Z,99.90
2018-04-09T21:41:58.425Z,99.90
2018-04-09T21:44:24.651Z,99.90
2018-04-09T21:46:50.873Z,99.90
2018-04-09T21:49:17.086Z,99.90
2018-04-09T21:51:43.326Z,99.90
2018-04-09T21:54:09.541Z,99.90
2018-04-09T21:56:35.764Z,99.90
2018-04-09T21:59:02.816Z,99.90
2018-04-09T22:01:29.057Z,99.90
2018-04-09T22:03:55.249Z,99.90
2018-04-09T22:06:21.475Z,99.90
2018-04-09T22:08:47.727Z,99.90
2018-04-09T22:11:14.694Z,99.90
2018-04-09T22:13:40.925Z,99.90
2018-04-09T22:16:07.445Z,99.90
2018-04-09T22:18:34.405Z,99.90
2018-04-09T22:21:00.636Z,99.90
2018-04-09T22:23:26.858Z,99.90
2018-04-09T22:25:53.799Z,99.90
2018-04-09T22:28:20.814Z,99.90
2018-04-09T22:30:47.058Z,99.90
2018-04-09T22:33:13.279Z,99.90
2018-04-09T22:35:39.498Z,99.90
2018-04-09T22:38:05.721Z,99.90
2018-04-09T22:40:31.969Z,99.90
2018-04-09T22:42:58.218Z,99.90
2018-04-09T22:45:25.192Z,99.90
2018-04-09T22:47:51.433Z,99.90
2018-04-09T22:50:17.656Z,99.90
2018-04-09T22:52:43.898Z,99.90
2018-04-09T22:55:10.133Z,99.90
2018-04-09T22:57:36.394Z,99.90
2018-04-09T23:00:02.649Z,99.90
2018-04-09T23:02:29.634Z,99.90
2018-04-09T23:04:55.854Z,99.90
2018-04-09T23:07:22.111Z,99.90
2018-04-09T23:09:48.347Z,99.90
2018-04-09T23:12:14.602Z,99.90
2018-04-09T23:14:40.818Z,99.90
2018-04-09T23:17:07.119Z,99.90
2018-04-09T23:19:33.366Z,99.90
2018-04-09T23:21:59.561Z,99.90
2018-04-09T23:24:25.785Z,99.90
2018-04-09T23:26:52.015Z,99.90
2018-04-09T23:29:18.238Z,99.90
2018-04-09T23:31:45.185Z,99.90
2018-04-09T23:34:12.115Z,99.90
2018-04-09T23:36:39.078Z,99.90
2018-04-09T23:39:06.024Z,99.90
2018-04-09T23:41:32.973Z,99.90
2018-04-09T23:43:59.938Z,99.90
2018-04-09T23:46:26.139Z,99.90
2018-04-09T23:48:53.088Z,99.90
2018-04-09T23:51:20.014Z,99.90
2018-04-09T23:53:46.222Z,99.90
2018-04-09T23:56:12.533Z,99.90
2018-04-09T23:58:38.749Z,99.90
